sensor_id;sensor_type;location;lat;lon;timestamp;pressure;altitude;pressure_sealevel;temperature;humidity
16190;BME280;41754;51.498;7.540;2023-01-19T00:01:41;98877.38;;;2.59;62.99
16190;BME280;41754;51.498;7.540;2023-01-19T00:04:09;98880.81;;;2.46;63.28
16190;BME280;41754;51.498;7.540;2023-01-19T00:06:38;98867.31;;;2.60;62.10
16190;BME280;41754;51.498;7.540;2023-01-19T00:09:06;98880.59;;;2.62;62.59
16190;BME280;41754;51.498;7.540;2023-01-19T00:11:34;98880.59;;;2.62;62.93
16190;BME280;41754;51.498;7.540;2023-01-19T00:14:01;98886.41;;;2.74;62.49
16190;BME280;41754;51.498;7.540;2023-01-19T00:16:29;98865.63;;;2.83;62.20
16190;BME280;41754;51.498;7.540;2023-01-19T00:18:57;98872.09;;;2.49;62.49
16190;BME280;41754;51.498;7.540;2023-01-19T00:21:25;98878.13;;;2.84;62.20
16190;BME280;41754;51.498;7.540;2023-01-19T00:23:54;98876.13;;;2.71;62.29
16190;BME280;41754;51.498;7.540;2023-01-19T00:26:22;98884.03;;;2.67;62.36
16190;BME280;41754;51.498;7.540;2023-01-19T00:28:49;98881.47;;;2.38;63.37
16190;BME280;41754;51.498;7.540;2023-01-19T00:31:18;98879.38;;;2.73;62.38
16190;BME280;41754;51.498;7.540;2023-01-19T00:33:47;98883.38;;;2.56;62.43
16190;BME280;41754;51.498;7.540;2023-01-19T00:36:17;98872.66;;;2.46;63.09
16190;BME280;41754;51.498;7.540;2023-01-19T00:38:45;98890.22;;;2.73;62.13
16190;BME280;41754;51.498;7.540;2023-01-19T00:41:15;98897.16;;;2.41;62.63
16190;BME280;41754;51.498;7.540;2023-01-19T00:43:42;98887.94;;;2.80;62.76
16190;BME280;41754;51.498;7.540;2023-01-19T00:46:09;98884.34;;;2.66;62.88
16190;BME280;41754;51.498;7.540;2023-01-19T00:48:37;98882.88;;;3.11;61.86
16190;BME280;41754;51.498;7.540;2023-01-19T00:51:05;98885.66;;;2.87;61.62
16190;BME280;41754;51.498;7.540;2023-01-19T00:53:33;98879.28;;;2.78;62.41
16190;BME280;41754;51.498;7.540;2023-01-19T00:56:01;98884.00;;;2.91;62.63
16190;BME280;41754;51.498;7.540;2023-01-19T00:58:30;98885.31;;;2.75;62.87
16190;BME280;41754;51.498;7.540;2023-01-19T01:00:58;98889.78;;;2.66;62.85
16190;BME280;41754;51.498;7.540;2023-01-19T01:03:29;98876.50;;;2.83;62.85
16190;BME280;41754;51.498;7.540;2023-01-19T01:05:57;98876.47;;;2.45;63.41
16190;BME280;41754;51.498;7.540;2023-01-19T01:08:25;98888.88;;;2.70;63.35
16190;BME280;41754;51.498;7.540;2023-01-19T01:10:53;98883.41;;;2.94;62.77
16190;BME280;41754;51.498;7.540;2023-01-19T01:13:21;98880.16;;;2.54;63.62
16190;BME280;41754;51.498;7.540;2023-01-19T01:15:55;98893.22;;;2.52;63.30
16190;BME280;41754;51.498;7.540;2023-01-19T01:18:23;98895.41;;;2.69;63.71
16190;BME280;41754;51.498;7.540;2023-01-19T01:20:51;98897.03;;;2.89;63.36
16190;BME280;41754;51.498;7.540;2023-01-19T01:23:21;98892.41;;;2.89;62.90
16190;BME280;41754;51.498;7.540;2023-01-19T01:25:49;98903.13;;;2.81;62.78
16190;BME280;41754;51.498;7.540;2023-01-19T01:28:17;98902.25;;;2.67;63.29
16190;BME280;41754;51.498;7.540;2023-01-19T01:30:45;98893.00;;;2.68;63.26
16190;BME280;41754;51.498;7.540;2023-01-19T01:33:14;98892.34;;;2.76;63.36
16190;BME280;41754;51.498;7.540;2023-01-19T01:36:02;98891.75;;;2.79;63.86
16190;BME280;41754;51.498;7.540;2023-01-19T01:38:30;98892.50;;;2.66;63.70
16190;BME280;41754;51.498;7.540;2023-01-19T01:40:58;98901.47;;;3.04;63.39
16190;BME280;41754;51.498;7.540;2023-01-19T01:43:40;98912.88;;;2.82;63.36
16190;BME280;41754;51.498;7.540;2023-01-19T01:46:10;98917.63;;;2.95;62.90
16190;BME280;41754;51.498;7.540;2023-01-19T01:48:44;98914.16;;;2.89;63.47
16190;BME280;41754;51.498;7.540;2023-01-19T01:51:19;98910.50;;;2.99;62.61
16190;BME280;41754;51.498;7.540;2023-01-19T01:54:09;98903.97;;;3.00;62.63
16190;BME280;41754;51.498;7.540;2023-01-19T01:56:42;98896.34;;;3.02;63.26
16190;BME280;41754;51.498;7.540;2023-01-19T01:59:14;98893.97;;;3.14;62.67
16190;BME280;41754;51.498;7.540;2023-01-19T02:01:56;98902.78;;;3.06;62.61
16190;BME280;41754;51.498;7.540;2023-01-19T02:04:48;98904.13;;;3.41;61.54
16190;BME280;41754;51.498;7.540;2023-01-19T02:07:22;98899.13;;;3.48;61.66
16190;BME280;41754;51.498;7.540;2023-01-19T02:10:10;98902.78;;;3.06;62.12
16190;BME280;41754;51.498;7.540;2023-01-19T02:12:56;98896.22;;;3.26;61.79
16190;BME280;41754;51.498;7.540;2023-01-19T02:15:42;98893.75;;;3.43;61.28
16190;BME280;41754;51.498;7.540;2023-01-19T02:18:10;98886.59;;;3.34;61.66
16190;BME280;41754;51.498;7.540;2023-01-19T02:20:45;98897.88;;;3.41;61.53
16190;BME280;41754;51.498;7.540;2023-01-19T02:23:19;98899.66;;;3.32;62.16
16190;BME280;41754;51.498;7.540;2023-01-19T02:25:52;98892.09;;;3.29;61.82
16190;BME280;41754;51.498;7.540;2023-01-19T02:28:20;98887.78;;;3.28;61.30
16190;BME280;41754;51.498;7.540;2023-01-19T02:30:47;98892.88;;;3.48;61.29
16190;BME280;41754;51.498;7.540;2023-01-19T02:33:15;98891.81;;;3.63;60.27
16190;BME280;41754;51.498;7.540;2023-01-19T02:35:44;98886.66;;;3.61;60.46
16190;BME280;41754;51.498;7.540;2023-01-19T02:38:14;98883.88;;;3.34;61.55
16190;BME280;41754;51.498;7.540;2023-01-19T02:40:44;98881.16;;;3.34;61.33
16190;BME280;41754;51.498;7.540;2023-01-19T02:43:16;98884.00;;;3.42;61.01
16190;BME280;41754;51.498;7.540;2023-01-19T02:45:45;98883.00;;;3.52;61.23
16190;BME280;41754;51.498;7.540;2023-01-19T02:48:14;98880.78;;;3.54;60.72
16190;BME280;41754;51.498;7.540;2023-01-19T02:50:44;98881.31;;;3.24;61.06
16190;BME280;41754;51.498;7.540;2023-01-19T02:53:53;98874.97;;;3.61;60.39
16190;BME280;41754;51.498;7.540;2023-01-19T02:56:48;98871.94;;;3.16;60.63
16190;BME280;41754;51.498;7.540;2023-01-19T02:59:27;98869.25;;;3.30;60.91
16190;BME280;41754;51.498;7.540;2023-01-19T03:02:05;98869.06;;;2.88;61.79
16190;BME280;41754;51.498;7.540;2023-01-19T03:04:58;98866.41;;;3.54;60.70
16190;BME280;41754;51.498;7.540;2023-01-19T03:07:41;98874.84;;;3.19;61.29
16190;BME280;41754;51.498;7.540;2023-01-19T03:10:16;98873.06;;;3.29;61.23
16190;BME280;41754;51.498;7.540;2023-01-19T03:12:49;98867.22;;;3.22;60.38
16190;BME280;41754;51.498;7.540;2023-01-19T03:15:25;98860.25;;;3.48;60.61
16190;BME280;41754;51.498;7.540;2023-01-19T03:17:57;98870.28;;;3.34;60.87
16190;BME280;41754;51.498;7.540;2023-01-19T03:20:27;98867.09;;;3.45;60.72
16190;BME280;41754;51.498;7.540;2023-01-19T03:23:01;98857.97;;;3.23;61.03
16190;BME280;41754;51.498;7.540;2023-01-19T03:25:34;98867.25;;;2.84;61.30
16190;BME280;41754;51.498;7.540;2023-01-19T03:28:04;98862.22;;;2.96;61.81
16190;BME280;41754;51.498;7.540;2023-01-19T03:30:35;98860.75;;;3.17;61.19
16190;BME280;41754;51.498;7.540;2023-01-19T03:33:08;98864.22;;;2.85;61.80
16190;BME280;41754;51.498;7.540;2023-01-19T03:35:43;98862.56;;;3.08;62.12
16190;BME280;41754;51.498;7.540;2023-01-19T03:38:15;98858.88;;;2.62;61.63
16190;BME280;41754;51.498;7.540;2023-01-19T03:40:44;98861.50;;;3.04;62.55
16190;BME280;41754;51.498;7.540;2023-01-19T03:43:15;98859.31;;;2.87;62.01
16190;BME280;41754;51.498;7.540;2023-01-19T03:45:45;98846.31;;;2.84;62.04
16190;BME280;41754;51.498;7.540;2023-01-19T03:48:14;98870.47;;;2.48;62.25
16190;BME280;41754;51.498;7.540;2023-01-19T03:50:42;98863.34;;;2.52;63.82
16190;BME280;41754;51.498;7.540;2023-01-19T03:53:11;98857.19;;;3.03;62.53
16190;BME280;41754;51.498;7.540;2023-01-19T03:55:41;98863.19;;;2.81;62.21
16190;BME280;41754;51.498;7.540;2023-01-19T03:58:10;98874.72;;;2.54;62.24
16190;BME280;41754;51.498;7.540;2023-01-19T04:00:38;98866.69;;;3.19;62.14
16190;BME280;41754;51.498;7.540;2023-01-19T04:03:13;98874.59;;;3.02;61.87
16190;BME280;41754;51.498;7.540;2023-01-19T04:05:41;98872.06;;;3.25;60.88
16190;BME280;41754;51.498;7.540;2023-01-19T04:08:10;98878.50;;;3.29;60.92
16190;BME280;41754;51.498;7.540;2023-01-19T04:10:38;98865.47;;;3.12;61.26
16190;BME280;41754;51.498;7.540;2023-01-19T04:13:05;98864.91;;;2.96;61.93
16190;BME280;41754;51.498;7.540;2023-01-19T04:15:33;98868.69;;;3.33;61.23
16190;BME280;41754;51.498;7.540;2023-01-19T04:18:01;98856.44;;;3.49;60.98
16190;BME280;41754;51.498;7.540;2023-01-19T04:20:30;98884.25;;;3.27;60.38
16190;BME280;41754;51.498;7.540;2023-01-19T04:23:00;98866.22;;;3.31;60.80
16190;BME280;41754;51.498;7.540;2023-01-19T04:25:28;98865.25;;;3.41;60.87
16190;BME280;41754;51.498;7.540;2023-01-19T04:27:56;98875.53;;;3.44;60.55
16190;BME280;41754;51.498;7.540;2023-01-19T04:30:25;98880.22;;;3.06;61.02
16190;BME280;41754;51.498;7.540;2023-01-19T04:32:53;98873.22;;;3.37;61.71
16190;BME280;41754;51.498;7.540;2023-01-19T04:35:21;98876.22;;;3.36;61.69
16190;BME280;41754;51.498;7.540;2023-01-19T04:37:51;98878.41;;;3.01;61.83
16190;BME280;41754;51.498;7.540;2023-01-19T04:40:19;98871.72;;;3.12;62.83
16190;BME280;41754;51.498;7.540;2023-01-19T04:42:46;98869.31;;;3.11;63.17
16190;BME280;41754;51.498;7.540;2023-01-19T04:45:15;98866.84;;;2.96;63.47
16190;BME280;41754;51.498;7.540;2023-01-19T04:47:42;98874.59;;;3.02;62.69
16190;BME280;41754;51.498;7.540;2023-01-19T04:50:10;98857.56;;;3.29;63.06
16190;BME280;41754;51.498;7.540;2023-01-19T04:52:39;98865.09;;;3.18;62.91
16190;BME280;41754;51.498;7.540;2023-01-19T04:55:09;98862.13;;;3.34;62.04
16190;BME280;41754;51.498;7.540;2023-01-19T04:57:37;98859.16;;;3.49;62.65
16190;BME280;41754;51.498;7.540;2023-01-19T05:00:06;98855.97;;;3.28;63.09
16190;BME280;41754;51.498;7.540;2023-01-19T05:02:34;98858.22;;;3.40;63.65
16190;BME280;41754;51.498;7.540;2023-01-19T05:05:02;98867.69;;;2.91;65.60
16190;BME280;41754;51.498;7.540;2023-01-19T05:07:30;98864.81;;;2.82;66.92
16190;BME280;41754;51.498;7.540;2023-01-19T05:09:58;98865.28;;;2.71;67.84
16190;BME280;41754;51.498;7.540;2023-01-19T05:12:28;98865.97;;;2.57;69.87
16190;BME280;41754;51.498;7.540;2023-01-19T05:14:55;98866.13;;;1.81;72.65
16190;BME280;41754;51.498;7.540;2023-01-19T05:17:23;98872.03;;;2.12;74.01
16190;BME280;41754;51.498;7.540;2023-01-19T05:19:51;98881.97;;;1.97;74.60
16190;BME280;41754;51.498;7.540;2023-01-19T05:22:19;98871.22;;;2.30;74.87
16190;BME280;41754;51.498;7.540;2023-01-19T05:24:46;98873.22;;;2.43;73.90
16190;BME280;41754;51.498;7.540;2023-01-19T05:27:14;98877.19;;;2.08;74.12
16190;BME280;41754;51.498;7.540;2023-01-19T05:29:43;98878.47;;;2.16;74.18
16190;BME280;41754;51.498;7.540;2023-01-19T05:32:11;98882.41;;;2.05;75.36
16190;BME280;41754;51.498;7.540;2023-01-19T05:34:39;98875.34;;;2.27;74.86
16190;BME280;41754;51.498;7.540;2023-01-19T05:37:07;98886.44;;;1.83;75.88
16190;BME280;41754;51.498;7.540;2023-01-19T05:39:35;98883.88;;;1.68;77.39
16190;BME280;41754;51.498;7.540;2023-01-19T05:42:03;98887.69;;;1.67;78.29
16190;BME280;41754;51.498;7.540;2023-01-19T05:44:31;98896.94;;;2.14;77.95
16190;BME280;41754;51.498;7.540;2023-01-19T05:47:00;98901.38;;;2.05;77.64
16190;BME280;41754;51.498;7.540;2023-01-19T05:49:28;98893.13;;;2.15;76.44
16190;BME280;41754;51.498;7.540;2023-01-19T05:51:56;98894.31;;;2.09;75.70
16190;BME280;41754;51.498;7.540;2023-01-19T05:54:24;98899.38;;;1.91;76.96
16190;BME280;41754;51.498;7.540;2023-01-19T05:56:52;98900.34;;;2.24;76.47
16190;BME280;41754;51.498;7.540;2023-01-19T05:59:19;98898.47;;;2.01;76.09
16190;BME280;41754;51.498;7.540;2023-01-19T06:01:49;98913.22;;;2.14;76.58
16190;BME280;41754;51.498;7.540;2023-01-19T06:04:19;98908.25;;;1.73;77.12
16190;BME280;41754;51.498;7.540;2023-01-19T06:06:48;98907.91;;;2.04;77.62
16190;BME280;41754;51.498;7.540;2023-01-19T06:09:16;98918.88;;;1.93;78.21
16190;BME280;41754;51.498;7.540;2023-01-19T06:11:44;98917.50;;;2.20;77.69
16190;BME280;41754;51.498;7.540;2023-01-19T06:14:12;98913.72;;;2.21;76.75
16190;BME280;41754;51.498;7.540;2023-01-19T06:16:40;98914.44;;;2.03;77.37
16190;BME280;41754;51.498;7.540;2023-01-19T06:19:08;98930.41;;;1.80;78.37
16190;BME280;41754;51.498;7.540;2023-01-19T06:21:37;98924.69;;;1.82;78.58
16190;BME280;41754;51.498;7.540;2023-01-19T06:24:05;98922.84;;;1.77;78.97
16190;BME280;41754;51.498;7.540;2023-01-19T06:26:33;98927.69;;;1.80;79.36
16190;BME280;41754;51.498;7.540;2023-01-19T06:29:01;98936.72;;;1.70;80.08
16190;BME280;41754;51.498;7.540;2023-01-19T06:31:28;98940.38;;;1.61;79.69
16190;BME280;41754;51.498;7.540;2023-01-19T06:33:56;98942.88;;;1.81;79.65
16190;BME280;41754;51.498;7.540;2023-01-19T06:36:24;98946.22;;;1.73;79.59
16190;BME280;41754;51.498;7.540;2023-01-19T06:38:53;98945.88;;;1.80;79.73
16190;BME280;41754;51.498;7.540;2023-01-19T06:41:21;98944.63;;;1.67;80.01
16190;BME280;41754;51.498;7.540;2023-01-19T06:43:49;98951.00;;;1.81;79.96
16190;BME280;41754;51.498;7.540;2023-01-19T06:46:16;98949.59;;;1.60;80.21
16190;BME280;41754;51.498;7.540;2023-01-19T06:48:44;98946.09;;;1.83;79.49
16190;BME280;41754;51.498;7.540;2023-01-19T06:51:12;98956.34;;;2.15;79.20
16190;BME280;41754;51.498;7.540;2023-01-19T06:53:40;98949.31;;;1.61;79.08
16190;BME280;41754;51.498;7.540;2023-01-19T06:56:09;98958.81;;;1.88;79.20
16190;BME280;41754;51.498;7.540;2023-01-19T06:58:37;98956.41;;;1.81;79.81
16190;BME280;41754;51.498;7.540;2023-01-19T07:01:05;98964.94;;;1.98;78.92
16190;BME280;41754;51.498;7.540;2023-01-19T07:03:34;98963.44;;;1.87;79.36
16190;BME280;41754;51.498;7.540;2023-01-19T07:06:04;98972.22;;;2.03;78.97
16190;BME280;41754;51.498;7.540;2023-01-19T07:08:33;98964.69;;;1.95;78.71
16190;BME280;41754;51.498;7.540;2023-01-19T07:11:03;98975.75;;;2.04;78.53
16190;BME280;41754;51.498;7.540;2023-01-19T07:13:54;98967.16;;;1.96;80.00
16190;BME280;41754;51.498;7.540;2023-01-19T07:16:22;98972.81;;;2.00;79.71
16190;BME280;41754;51.498;7.540;2023-01-19T07:18:50;98981.78;;;1.95;78.98
16190;BME280;41754;51.498;7.540;2023-01-19T07:21:18;98991.06;;;1.89;78.68
16190;BME280;41754;51.498;7.540;2023-01-19T07:23:47;98990.59;;;2.11;78.31
16190;BME280;41754;51.498;7.540;2023-01-19T07:26:15;98989.78;;;2.11;78.97
16190;BME280;41754;51.498;7.540;2023-01-19T07:28:47;99006.25;;;1.90;79.30
16190;BME280;41754;51.498;7.540;2023-01-19T07:31:16;99005.22;;;1.86;79.97
16190;BME280;41754;51.498;7.540;2023-01-19T07:33:45;99007.19;;;2.05;79.15
16190;BME280;41754;51.498;7.540;2023-01-19T07:36:13;99007.19;;;2.05;79.50
16190;BME280;41754;51.498;7.540;2023-01-19T07:38:41;99006.44;;;2.28;78.91
16190;BME280;41754;51.498;7.540;2023-01-19T07:41:09;99011.69;;;1.90;78.69
16190;BME280;41754;51.498;7.540;2023-01-19T07:43:37;99011.25;;;2.07;78.73
16190;BME280;41754;51.498;7.540;2023-01-19T07:46:06;99025.75;;;1.92;78.98
16190;BME280;41754;51.498;7.540;2023-01-19T07:48:35;99022.81;;;2.18;78.35
16190;BME280;41754;51.498;7.540;2023-01-19T07:51:04;99022.00;;;2.46;78.30
16190;BME280;41754;51.498;7.540;2023-01-19T07:53:37;99025.91;;;2.06;77.89
16190;BME280;41754;51.498;7.540;2023-01-19T07:56:07;99039.19;;;2.08;78.46
16190;BME280;41754;51.498;7.540;2023-01-19T07:58:35;99036.03;;;1.95;79.02
16190;BME280;41754;51.498;7.540;2023-01-19T08:01:05;99047.91;;;2.34;78.46
16190;BME280;41754;51.498;7.540;2023-01-19T08:03:35;99043.28;;;2.58;76.95
16190;BME280;41754;51.498;7.540;2023-01-19T08:06:03;99054.69;;;2.31;77.71
16190;BME280;41754;51.498;7.540;2023-01-19T08:08:32;99049.75;;;2.38;77.32
16190;BME280;41754;51.498;7.540;2023-01-19T08:11:00;99060.63;;;2.38;77.82
16190;BME280;41754;51.498;7.540;2023-01-19T08:13:28;99071.91;;;2.21;77.53
16190;BME280;41754;51.498;7.540;2023-01-19T08:15:56;99069.41;;;2.54;77.49
16190;BME280;41754;51.498;7.540;2023-01-19T08:18:24;99072.00;;;2.11;77.91
16190;BME280;41754;51.498;7.540;2023-01-19T08:20:53;99077.09;;;2.18;77.63
16190;BME280;41754;51.498;7.540;2023-01-19T08:23:21;99068.16;;;2.46;77.67
16190;BME280;41754;51.498;7.540;2023-01-19T08:25:49;99076.34;;;2.07;78.23
16190;BME280;41754;51.498;7.540;2023-01-19T08:28:17;99076.00;;;2.48;76.91
16190;BME280;41754;51.498;7.540;2023-01-19T08:30:45;99081.84;;;2.60;76.11
16190;BME280;41754;51.498;7.540;2023-01-19T08:33:20;99077.34;;;2.45;75.83
16190;BME280;41754;51.498;7.540;2023-01-19T08:35:49;99079.63;;;2.38;77.29
16190;BME280;41754;51.498;7.540;2023-01-19T08:38:20;99092.28;;;2.19;77.19
16190;BME280;41754;51.498;7.540;2023-01-19T08:40:48;99096.41;;;2.11;78.97
16190;BME280;41754;51.498;7.540;2023-01-19T08:43:16;99108.69;;;2.04;79.07
16190;BME280;41754;51.498;7.540;2023-01-19T08:45:48;99108.56;;;2.48;78.13
16190;BME280;41754;51.498;7.540;2023-01-19T08:48:17;99112.63;;;2.50;77.69
16190;BME280;41754;51.498;7.540;2023-01-19T08:50:48;99103.31;;;2.27;77.84
16190;BME280;41754;51.498;7.540;2023-01-19T08:53:17;99101.56;;;2.71;76.98
16190;BME280;41754;51.498;7.540;2023-01-19T08:55:48;99103.88;;;2.58;76.35
16190;BME280;41754;51.498;7.540;2023-01-19T08:58:16;99108.34;;;2.68;76.73
16190;BME280;41754;51.498;7.540;2023-01-19T09:00:44;99123.81;;;2.73;75.50
16190;BME280;41754;51.498;7.540;2023-01-19T09:03:11;99114.94;;;2.62;75.79
16190;BME280;41754;51.498;7.540;2023-01-19T09:05:40;99127.56;;;2.77;75.80
16190;BME280;41754;51.498;7.540;2023-01-19T09:08:09;99132.34;;;2.90;75.63
16190;BME280;41754;51.498;7.540;2023-01-19T09:10:43;99132.53;;;2.99;74.44
16190;BME280;41754;51.498;7.540;2023-01-19T09:13:13;99140.34;;;2.76;75.27
16190;BME280;41754;51.498;7.540;2023-01-19T09:15:42;99136.50;;;2.77;76.75
16190;BME280;41754;51.498;7.540;2023-01-19T09:18:11;99136.78;;;3.29;74.73
16190;BME280;41754;51.498;7.540;2023-01-19T09:20:39;99140.31;;;3.05;74.35
16190;BME280;41754;51.498;7.540;2023-01-19T09:23:08;99155.09;;;2.94;75.22
16190;BME280;41754;51.498;7.540;2023-01-19T09:25:37;99153.84;;;3.10;75.22
16190;BME280;41754;51.498;7.540;2023-01-19T09:28:05;99152.78;;;3.06;75.55
16190;BME280;41754;51.498;7.540;2023-01-19T09:30:37;99164.47;;;2.78;74.88
16190;BME280;41754;51.498;7.540;2023-01-19T09:33:07;99171.91;;;3.44;74.65
16190;BME280;41754;51.498;7.540;2023-01-19T09:35:36;99180.94;;;3.21;75.20
16190;BME280;41754;51.498;7.540;2023-01-19T09:38:05;99176.63;;;3.14;73.59
16190;BME280;41754;51.498;7.540;2023-01-19T09:40:35;99171.41;;;2.94;75.44
16190;BME280;41754;51.498;7.540;2023-01-19T09:43:12;99192.91;;;2.62;76.82
16190;BME280;41754;51.498;7.540;2023-01-19T09:45:46;99194.34;;;3.12;76.27
16190;BME280;41754;51.498;7.540;2023-01-19T09:48:26;99190.16;;;3.43;74.64
16190;BME280;41754;51.498;7.540;2023-01-19T09:50:59;99196.97;;;3.17;74.97
16190;BME280;41754;51.498;7.540;2023-01-19T09:53:38;99201.63;;;3.40;74.08
16190;BME280;41754;51.498;7.540;2023-01-19T09:56:11;99196.47;;;3.39;73.31
16190;BME280;41754;51.498;7.540;2023-01-19T09:58:40;99208.53;;;3.33;74.34
16190;BME280;41754;51.498;7.540;2023-01-19T10:01:21;99209.81;;;3.59;73.18
16190;BME280;41754;51.498;7.540;2023-01-19T10:04:04;99215.13;;;3.69;72.83
16190;BME280;41754;51.498;7.540;2023-01-19T10:06:34;99222.22;;;3.70;72.41
16190;BME280;41754;51.498;7.540;2023-01-19T10:09:07;99220.28;;;3.71;72.49
16190;BME280;41754;51.498;7.540;2023-01-19T10:11:44;99224.25;;;3.78;72.81
16190;BME280;41754;51.498;7.540;2023-01-19T10:14:24;99222.44;;;3.50;73.13
16190;BME280;41754;51.498;7.540;2023-01-19T10:17:02;99224.00;;;3.56;73.56
16190;BME280;41754;51.498;7.540;2023-01-19T10:19:34;99223.41;;;4.02;72.43
16190;BME280;41754;51.498;7.540;2023-01-19T10:22:17;99224.53;;;3.58;72.32
16190;BME280;41754;51.498;7.540;2023-01-19T10:24:48;99228.97;;;3.73;72.11
16190;BME280;41754;51.498;7.540;2023-01-19T10:27:20;99224.50;;;4.01;71.89
16190;BME280;41754;51.498;7.540;2023-01-19T10:29:50;99231.63;;;3.78;71.75
16190;BME280;41754;51.498;7.540;2023-01-19T10:32:22;99227.50;;;3.81;72.77
16190;BME280;41754;51.498;7.540;2023-01-19T10:34:52;99230.28;;;3.94;72.14
16190;BME280;41754;51.498;7.540;2023-01-19T10:37:28;99235.59;;;3.86;72.17
16190;BME280;41754;51.498;7.540;2023-01-19T10:40:01;99241.66;;;4.01;72.14
16190;BME280;41754;51.498;7.540;2023-01-19T10:42:33;99246.78;;;4.41;70.65
16190;BME280;41754;51.498;7.540;2023-01-19T10:45:01;99247.31;;;3.62;70.87
16190;BME280;41754;51.498;7.540;2023-01-19T10:47:33;99240.88;;;3.77;71.53
16190;BME280;41754;51.498;7.540;2023-01-19T10:50:21;99250.22;;;3.71;71.85
16190;BME280;41754;51.498;7.540;2023-01-19T10:52:51;99242.91;;;3.42;72.90
16190;BME280;41754;51.498;7.540;2023-01-19T10:55:24;99251.16;;;3.61;72.67
16190;BME280;41754;51.498;7.540;2023-01-19T10:57:52;99246.94;;;3.69;72.47
16190;BME280;41754;51.498;7.540;2023-01-19T11:00:35;99252.06;;;3.75;72.42
16190;BME280;41754;51.498;7.540;2023-01-19T11:03:21;99254.50;;;3.53;73.30
16190;BME280;41754;51.498;7.540;2023-01-19T11:05:50;99258.91;;;3.49;73.78
16190;BME280;41754;51.498;7.540;2023-01-19T11:08:22;99263.13;;;3.84;73.66
16190;BME280;41754;51.498;7.540;2023-01-19T11:10:58;99262.81;;;3.86;72.72
16190;BME280;41754;51.498;7.540;2023-01-19T11:13:28;99261.72;;;3.39;72.80
16190;BME280;41754;51.498;7.540;2023-01-19T11:15:57;99259.94;;;3.53;73.35
16190;BME280;41754;51.498;7.540;2023-01-19T11:18:29;99260.72;;;3.77;72.54
16190;BME280;41754;51.498;7.540;2023-01-19T11:20:59;99256.59;;;4.23;70.94
16190;BME280;41754;51.498;7.540;2023-01-19T11:23:30;99266.03;;;3.45;71.71
16190;BME280;41754;51.498;7.540;2023-01-19T11:26:01;99265.25;;;3.63;73.02
16190;BME280;41754;51.498;7.540;2023-01-19T11:28:34;99265.34;;;4.01;72.01
16190;BME280;41754;51.498;7.540;2023-01-19T11:31:16;99273.34;;;3.68;71.69
16190;BME280;41754;51.498;7.540;2023-01-19T11:33:49;99268.09;;;3.53;71.91
16190;BME280;41754;51.498;7.540;2023-01-19T11:36:19;99271.50;;;3.88;72.70
16190;BME280;41754;51.498;7.540;2023-01-19T11:38:49;99274.28;;;3.83;72.57
16190;BME280;41754;51.498;7.540;2023-01-19T11:41:20;99264.59;;;3.95;71.78
16190;BME280;41754;51.498;7.540;2023-01-19T11:43:51;99267.06;;;3.92;71.82
16190;BME280;41754;51.498;7.540;2023-01-19T11:46:21;99269.84;;;4.11;71.95
16190;BME280;41754;51.498;7.540;2023-01-19T11:48:55;99269.91;;;3.82;71.75
16190;BME280;41754;51.498;7.540;2023-01-19T11:51:29;99276.94;;;3.88;71.72
16190;BME280;41754;51.498;7.540;2023-01-19T11:54:02;99271.31;;;3.55;72.05
16190;BME280;41754;51.498;7.540;2023-01-19T11:56:34;99281.38;;;3.31;73.36
16190;BME280;41754;51.498;7.540;2023-01-19T11:59:02;99279.25;;;3.75;73.83
16190;BME280;41754;51.498;7.540;2023-01-19T12:01:32;99276.22;;;4.01;72.49
16190;BME280;41754;51.498;7.540;2023-01-19T12:04:05;99275.56;;;4.65;70.62
16190;BME280;41754;51.498;7.540;2023-01-19T12:06:38;99280.34;;;4.17;69.67
16190;BME280;41754;51.498;7.540;2023-01-19T12:09:13;99271.59;;;4.01;71.55
16190;BME280;41754;51.498;7.540;2023-01-19T12:11:46;99277.13;;;4.15;70.33
16190;BME280;41754;51.498;7.540;2023-01-19T12:14:18;99281.88;;;4.04;70.67
16190;BME280;41754;51.498;7.540;2023-01-19T12:16:50;99280.81;;;4.24;69.70
16190;BME280;41754;51.498;7.540;2023-01-19T12:19:23;99278.00;;;4.48;69.63
16190;BME280;41754;51.498;7.540;2023-01-19T12:21:53;99269.91;;;4.62;69.06
16190;BME280;41754;51.498;7.540;2023-01-19T12:24:27;99282.19;;;4.41;68.83
16190;BME280;41754;51.498;7.540;2023-01-19T12:26:57;99276.31;;;4.71;68.55
16190;BME280;41754;51.498;7.540;2023-01-19T12:29:29;99278.66;;;4.40;69.66
16190;BME280;41754;51.498;7.540;2023-01-19T12:32:17;99285.75;;;4.22;70.16
16190;BME280;41754;51.498;7.540;2023-01-19T12:34:48;99273.28;;;4.54;69.70
16190;BME280;41754;51.498;7.540;2023-01-19T12:37:31;99275.66;;;4.42;68.76
16190;BME280;41754;51.498;7.540;2023-01-19T12:40:02;99273.00;;;4.36;68.70
16190;BME280;41754;51.498;7.540;2023-01-19T12:42:32;99282.94;;;4.46;68.20
16190;BME280;41754;51.498;7.540;2023-01-19T12:45:05;99284.22;;;3.92;69.88
16190;BME280;41754;51.498;7.540;2023-01-19T12:47:35;99286.03;;;4.21;70.42
16190;BME280;41754;51.498;7.540;2023-01-19T12:50:10;99288.84;;;3.92;70.32
16190;BME280;41754;51.498;7.540;2023-01-19T12:52:41;99287.34;;;4.42;69.28
16190;BME280;41754;51.498;7.540;2023-01-19T12:55:22;99288.09;;;4.10;69.49
16190;BME280;41754;51.498;7.540;2023-01-19T12:57:56;99291.44;;;4.45;68.86
16190;BME280;41754;51.498;7.540;2023-01-19T13:00:33;99288.00;;;4.53;68.46
16190;BME280;41754;51.498;7.540;2023-01-19T13:05:52;99291.75;;;4.00;70.02
16190;BME280;41754;51.498;7.540;2023-01-19T13:08:22;99291.06;;;4.32;69.87
16190;BME280;41754;51.498;7.540;2023-01-19T13:11:12;99293.66;;;4.56;68.51
16190;BME280;41754;51.498;7.540;2023-01-19T13:13:42;99290.94;;;4.00;68.04
16190;BME280;41754;51.498;7.540;2023-01-19T13:16:45;99289.75;;;4.06;69.21
16190;BME280;41754;51.498;7.540;2023-01-19T13:19:17;99300.94;;;3.81;69.45
16190;BME280;41754;51.498;7.540;2023-01-19T13:21:50;99298.72;;;3.88;71.10
16190;BME280;41754;51.498;7.540;2023-01-19T13:24:20;99304.28;;;4.20;70.35
16190;BME280;41754;51.498;7.540;2023-01-19T13:26:53;99299.34;;;4.22;70.70
16190;BME280;41754;51.498;7.540;2023-01-19T13:29:27;99299.31;;;4.98;69.32
16190;BME280;41754;51.498;7.540;2023-01-19T13:31:57;99298.19;;;5.31;66.98
16190;BME280;41754;51.498;7.540;2023-01-19T13:34:30;99294.66;;;4.98;66.68